createdAt,value
2022-09-07T00:00:51.365Z,95.91
2022-09-07T00:01:51.335Z,95.09
2022-09-07T00:02:51.354Z,95.50
2022-09-07T00:03:51.351Z,93.58
2022-09-07T00:04:51.314Z,89.88
2022-09-07T00:05:51.295Z,86.02
2022-09-07T00:06:51.420Z,82.56
2022-09-07T00:07:51.261Z,80.42
2022-09-07T00:08:51.248Z,78.47
2022-09-07T00:09:51.254Z,76.06
2022-09-07T00:10:51.239Z,74.90
2022-09-07T00:11:51.255Z,73.98
2022-09-07T00:12:51.242Z,72.20
2022-09-07T00:13:51.197Z,70.68
2022-09-07T00:14:51.190Z,68.89
2022-09-07T00:15:51.274Z,67.40
2022-09-07T00:16:51.200Z,65.15
2022-09-07T00:17:51.139Z,62.53
2022-09-07T00:18:51.130Z,60.03
2022-09-07T00:19:51.117Z,56.71
2022-09-07T00:20:51.098Z,52.83
2022-09-07T00:21:51.111Z,49.62
2022-09-07T00:22:51.099Z,46.49
2022-09-07T00:23:51.069Z,43.24
2022-09-07T00:24:51.057Z,40.15
2022-09-07T00:25:53.975Z,37.17
2022-09-07T00:26:51.062Z,35.00
2022-09-07T00:27:51.021Z,33.50
2022-09-07T00:28:51.019Z,33.00
2022-09-07T00:29:50.995Z,32.87
2022-09-07T00:30:51.005Z,32.54
2022-09-07T00:31:51.044Z,32.41
2022-09-07T00:32:50.991Z,32.07
2022-09-07T00:33:50.950Z,31.75
2022-09-07T00:34:50.943Z,31.73
2022-09-07T00:35:50.932Z,31.47
2022-09-07T00:36:50.936Z,31.00
2022-09-07T00:37:50.923Z,30.60
2022-09-07T00:38:50.901Z,29.44
2022-09-07T00:39:50.920Z,27.95
2022-09-07T00:40:50.871Z,26.54
2022-09-07T00:41:50.861Z,25.36
2022-09-07T00:42:50.880Z,23.40
2022-09-07T00:43:50.836Z,21.31
2022-09-07T00:44:50.832Z,19.81
2022-09-07T00:45:50.815Z,18.50
2022-09-07T00:46:50.872Z,17.24
2022-09-07T00:47:50.807Z,16.39
2022-09-07T00:48:50.778Z,15.60
2022-09-07T00:49:50.773Z,14.76
2022-09-07T00:50:50.763Z,14.08
2022-09-07T00:51:50.742Z,13.50
2022-09-07T00:52:50.753Z,12.99
2022-09-07T00:53:50.725Z,12.63
2022-09-07T00:54:50.713Z,12.25
2022-09-07T00:55:50.706Z,11.91
2022-09-07T00:56:50.693Z,11.66
2022-09-07T00:57:50.676Z,11.43
2022-09-07T00:58:50.685Z,11.15
2022-09-07T00:59:50.647Z,10.91
2022-09-07T01:00:50.652Z,10.65
2022-09-07T01:01:50.725Z,10.43
2022-09-07T01:02:50.698Z,10.18
2022-09-07T01:03:50.636Z,9.99
2022-09-07T01:04:50.586Z,9.73
2022-09-07T01:05:50.589Z,9.61
2022-09-07T01:06:50.582Z,9.46
2022-09-07T01:07:50.556Z,9.34
2022-09-07T01:08:50.573Z,9.18
2022-09-07T01:09:50.540Z,9.07
2022-09-07T01:10:50.526Z,8.96
2022-09-07T01:11:50.508Z,8.81
2022-09-07T01:12:50.509Z,8.73
2022-09-07T01:13:50.499Z,8.62
2022-09-07T01:14:50.489Z,8.56
2022-09-07T01:15:50.531Z,8.41
2022-09-07T01:16:50.460Z,8.36
2022-09-07T01:17:50.440Z,8.29
2022-09-07T01:18:50.434Z,8.22
2022-09-07T01:19:50.421Z,8.16
2022-09-07T01:20:50.411Z,8.10
2022-09-07T01:21:50.410Z,8.02
2022-09-07T01:22:50.389Z,8.01
2022-09-07T01:23:50.379Z,7.95
2022-09-07T01:24:50.367Z,7.88
2022-09-07T01:25:50.369Z,7.85
2022-09-07T01:26:50.357Z,7.80
2022-09-07T01:27:50.330Z,7.77
2022-09-07T01:28:50.326Z,7.77
2022-09-07T01:29:50.309Z,7.70
2022-09-07T01:30:50.380Z,7.70
2022-09-07T01:31:50.305Z,7.66
2022-09-07T01:32:50.274Z,7.64
2022-09-07T01:33:50.252Z,7.62
2022-09-07T01:34:50.247Z,7.60
2022-09-07T01:35:50.233Z,7.54
2022-09-07T01:36:50.241Z,7.54
2022-09-07T01:37:53.942Z,7.51
2022-09-07T01:38:51.203Z,7.51
2022-09-07T01:39:50.198Z,7.48
2022-09-07T01:40:50.182Z,7.45
2022-09-07T01:41:50.185Z,7.44
2022-09-07T01:42:50.154Z,7.40
2022-09-07T01:43:50.149Z,7.40
2022-09-07T01:44:50.136Z,7.37
2022-09-07T01:45:50.123Z,7.36
2022-09-07T01:46:50.163Z,7.40
2022-09-07T01:47:50.087Z,7.33
2022-09-07T01:48:50.092Z,7.32
2022-09-07T01:49:50.075Z,7.31
2022-09-07T01:50:50.055Z,7.30
2022-09-07T01:51:50.080Z,7.28
2022-09-07T01:52:50.044Z,7.27
2022-09-07T01:53:50.029Z,7.30
2022-09-07T01:54:50.021Z,7.26
2022-09-07T01:55:50.022Z,7.27
2022-09-07T01:56:50.000Z,7.28
2022-09-07T01:57:49.990Z,7.27
2022-09-07T01:58:49.968Z,7.28
2022-09-07T01:59:49.957Z,7.28
2022-09-07T02:00:49.949Z,7.27
2022-09-07T02:01:50.009Z,7.26
2022-09-07T02:02:50.115Z,7.24
2022-09-07T02:03:49.902Z,7.24
2022-09-07T02:04:49.898Z,7.25
2022-09-07T02:05:49.888Z,7.24
2022-09-07T02:06:49.879Z,7.26
2022-09-07T02:07:49.874Z,7.25
2022-09-07T02:08:49.850Z,7.25
2022-09-07T02:09:49.826Z,7.25
2022-09-07T02:10:49.833Z,7.28
2022-09-07T02:11:49.811Z,7.24
2022-09-07T02:12:49.819Z,7.26
2022-09-07T02:13:49.789Z,7.28
2022-09-07T02:14:52.653Z,7.26
2022-09-07T02:15:49.790Z,7.29
2022-09-07T02:16:49.762Z,7.31
2022-09-07T02:17:49.749Z,7.31
2022-09-07T02:18:49.739Z,7.29
2022-09-07T02:19:49.721Z,7.31
2022-09-07T02:20:49.709Z,7.32
2022-09-07T02:21:49.699Z,7.37
2022-09-07T02:22:49.689Z,7.34
2022-09-07T02:23:49.673Z,7.35
2022-09-07T02:24:49.657Z,7.35
2022-09-07T02:25:49.652Z,7.37
2022-09-07T02:26:49.644Z,7.37
2022-09-07T02:27:49.644Z,7.38
2022-09-07T02:28:49.608Z,7.39
2022-09-07T02:29:49.602Z,7.39
2022-09-07T02:30:49.638Z,7.43
2022-09-07T02:31:49.574Z,7.40
2022-09-07T02:32:49.582Z,7.42
2022-09-07T02:33:49.551Z,7.45
2022-09-07T02:34:49.552Z,7.45
2022-09-07T02:35:49.526Z,7.43
2022-09-07T02:36:49.521Z,7.47
2022-09-07T02:37:49.505Z,7.46
2022-09-07T02:38:49.508Z,7.47
2022-09-07T02:39:49.552Z,7.47
2022-09-07T02:40:49.469Z,7.48
2022-09-07T02:41:49.463Z,7.51
2022-09-07T02:42:49.449Z,7.53
2022-09-07T02:43:49.452Z,7.53
2022-09-07T02:44:49.429Z,7.55
2022-09-07T02:45:49.506Z,7.57
2022-09-07T02:46:49.407Z,7.56
2022-09-07T02:47:49.397Z,7.58
2022-09-07T02:48:49.387Z,7.61
2022-09-07T02:49:49.371Z,7.61
2022-09-07T02:50:49.346Z,7.60
2022-09-07T02:51:49.337Z,7.59
2022-09-07T02:52:49.326Z,7.62
2022-09-07T02:53:49.314Z,7.62
2022-09-07T02:54:49.315Z,7.60
2022-09-07T02:55:49.295Z,7.63
2022-09-07T02:56:49.289Z,7.64
2022-09-07T02:57:49.267Z,7.68
2022-09-07T02:58:49.253Z,7.68
2022-09-07T02:59:49.259Z,7.68
2022-09-07T03:00:49.233Z,7.68
2022-09-07T03:01:49.324Z,7.68
2022-09-07T03:02:49.263Z,7.69
2022-09-07T03:03:49.197Z,7.71
2022-09-07T03:04:49.211Z,7.71
2022-09-07T03:05:49.177Z,7.73
2022-09-07T03:06:49.169Z,7.73
2022-09-07T03:07:49.159Z,7.74
2022-09-07T03:08:49.148Z,7.75
2022-09-07T03:09:49.129Z,7.77
2022-09-07T03:10:49.132Z,7.77
2022-09-07T03:11:49.107Z,7.74
2022-09-07T03:12:49.092Z,7.75
2022-09-07T03:13:49.075Z,7.77
2022-09-07T03:14:49.065Z,7.80
2022-09-07T03:15:53.604Z,7.77
2022-09-07T03:16:50.068Z,7.81
2022-09-07T03:17:49.039Z,7.78
2022-09-07T03:18:49.020Z,7.81
2022-09-07T03:19:49.032Z,7.77
2022-09-07T03:20:49.019Z,7.80
2022-09-07T03:21:49.013Z,7.82
2022-09-07T03:22:48.993Z,7.86
2022-09-07T03:23:51.822Z,7.81
2022-09-07T03:24:48.960Z,7.77
2022-09-07T03:25:48.948Z,7.81
2022-09-07T03:26:48.957Z,7.84
2022-09-07T03:27:48.914Z,7.87
2022-09-07T03:28:48.898Z,7.81
2022-09-07T03:29:48.890Z,7.81
2022-09-07T03:30:48.901Z,7.88
2022-09-07T03:31:48.876Z,7.86
2022-09-07T03:32:48.871Z,7.86
2022-09-07T03:33:48.844Z,7.82
2022-09-07T03:34:48.821Z,7.85
2022-09-07T03:35:48.813Z,7.91
2022-09-07T03:36:48.814Z,7.92
2022-09-07T03:37:48.813Z,7.91
2022-09-07T03:38:48.786Z,7.91
2022-09-07T03:39:48.800Z,7.92
2022-09-07T03:40:48.785Z,7.95
2022-09-07T03:41:48.757Z,7.95
2022-09-07T03:42:48.749Z,8.00
2022-09-07T03:43:48.726Z,7.93
2022-09-07T03:44:48.715Z,7.97
2022-09-07T03:45:48.762Z,7.99
2022-09-07T03:46:48.715Z,8.00
2022-09-07T03:47:48.705Z,7.99
2022-09-07T03:48:48.678Z,8.03
2022-09-07T03:49:48.658Z,8.03
2022-09-07T03:50:48.649Z,7.99
2022-09-07T03:51:48.673Z,8.01
2022-09-07T03:52:48.640Z,7.98
2022-09-07T03:53:48.609Z,8.06
2022-09-07T03:54:48.596Z,8.02
2022-09-07T03:55:48.581Z,8.05
2022-09-07T03:56:48.585Z,8.06
2022-09-07T03:57:48.566Z,8.08
2022-09-07T03:58:48.570Z,8.08
2022-09-07T03:59:48.539Z,8.10
2022-09-07T04:00:48.518Z,8.08
2022-09-07T04:01:48.571Z,8.04
2022-09-07T04:02:48.572Z,8.06
2022-09-07T04:03:48.516Z,8.12
2022-09-07T04:04:48.480Z,8.06
2022-09-07T04:05:48.460Z,8.13
2022-09-07T04:06:48.468Z,8.15
2022-09-07T04:07:48.450Z,8.21
2022-09-07T04:08:48.428Z,8.16
2022-09-07T04:09:48.438Z,8.17
2022-09-07T04:10:48.409Z,8.22
2022-09-07T04:11:48.396Z,8.12
2022-09-07T04:12:48.387Z,8.26
2022-09-07T04:13:48.386Z,8.26
2022-09-07T04:14:48.372Z,8.25
2022-09-07T04:15:52.126Z,8.24
2022-09-07T04:16:49.404Z,8.20
2022-09-07T04:17:48.322Z,8.27
2022-09-07T04:18:48.316Z,8.24
2022-09-07T04:19:48.321Z,8.26
2022-09-07T04:20:48.291Z,8.25
2022-09-07T04:21:48.284Z,8.20
2022-09-07T04:22:50.462Z,8.24
2022-09-07T04:23:49.257Z,8.28
2022-09-07T04:24:48.263Z,8.26
2022-09-07T04:25:48.235Z,8.21
2022-09-07T04:26:48.219Z,8.29
2022-09-07T04:27:48.211Z,8.28
2022-09-07T04:28:48.193Z,8.24
2022-09-07T04:29:48.209Z,8.29
2022-09-07T04:30:48.236Z,8.34
2022-09-07T04:31:48.165Z,8.30
2022-09-07T04:32:48.156Z,8.29
2022-09-07T04:33:48.140Z,8.31
2022-09-07T04:34:48.150Z,8.35
2022-09-07T04:35:48.116Z,8.35
2022-09-07T04:36:48.104Z,8.36
2022-09-07T04:37:48.097Z,8.37
2022-09-07T04:38:48.084Z,8.36
2022-09-07T04:39:48.125Z,8.37
2022-09-07T04:40:48.085Z,8.35
2022-09-07T04:41:48.055Z,8.36
2022-09-07T04:42:48.036Z,8.30
2022-09-07T04:43:48.024Z,8.33
2022-09-07T04:44:48.014Z,8.37
2022-09-07T04:45:48.042Z,8.33
2022-09-07T04:46:47.995Z,8.43
2022-09-07T04:47:47.986Z,8.32
2022-09-07T04:48:47.965Z,8.41
2022-09-07T04:49:47.961Z,8.34
2022-09-07T04:50:47.944Z,8.37
2022-09-07T04:51:47.948Z,8.36
2022-09-07T04:52:47.914Z,8.48
2022-09-07T04:53:47.902Z,8.42
2022-09-07T04:54:47.898Z,8.37
2022-09-07T04:55:47.909Z,8.43
2022-09-07T04:56:47.876Z,8.39
2022-09-07T04:57:47.857Z,8.43
2022-09-07T04:58:47.851Z,8.41
2022-09-07T04:59:47.861Z,8.44
2022-09-07T05:00:47.841Z,8.48
2022-09-07T05:01:47.920Z,8.39
2022-09-07T05:02:47.841Z,8.48
2022-09-07T05:03:47.797Z,8.45
2022-09-07T05:04:47.781Z,8.45
2022-09-07T05:05:47.770Z,8.48
2022-09-07T05:06:47.777Z,8.42
2022-09-07T05:07:47.747Z,8.45
2022-09-07T05:08:47.728Z,8.49
2022-09-07T05:09:47.719Z,8.48
2022-09-07T05:10:47.705Z,8.47
2022-09-07T05:11:47.709Z,8.48
2022-09-07T05:12:47.682Z,8.44
2022-09-07T05:13:47.669Z,8.54
2022-09-07T05:14:47.660Z,8.42
2022-09-07T05:15:47.654Z,8.45
2022-09-07T05:16:47.716Z,8.48
2022-09-07T05:17:47.633Z,8.47
2022-09-07T05:18:47.618Z,8.54
2022-09-07T05:19:47.624Z,8.54
2022-09-07T05:20:47.602Z,8.55
2022-09-07T05:21:47.587Z,8.55
2022-09-07T05:22:47.587Z,8.59
2022-09-07T05:23:47.571Z,8.57
2022-09-07T05:24:47.543Z,8.53
2022-09-07T05:25:47.536Z,8.57
2022-09-07T05:26:47.533Z,8.52
2022-09-07T05:27:47.532Z,8.59
2022-09-07T05:28:47.503Z,8.55
2022-09-07T05:30:03.923Z,8.59
2022-09-07T05:31:48.463Z,8.66
2022-09-07T05:32:47.462Z,8.57
2022-09-07T05:34:50.860Z,8.66
2022-09-07T05:35:47.424Z,8.66
2022-09-07T05:36:47.432Z,8.65
2022-09-07T05:37:47.413Z,8.71
2022-09-07T05:38:47.412Z,8.66
2022-09-07T05:39:47.429Z,8.66
2022-09-07T05:40:47.365Z,8.69
2022-09-07T05:41:47.347Z,8.68
2022-09-07T05:42:47.353Z,8.68
2022-09-07T05:44:48.325Z,8.70
2022-09-07T05:45:47.337Z,8.68
2022-09-07T05:46:47.303Z,8.67
2022-09-07T05:47:47.298Z,8.67
2022-09-07T05:48:47.267Z,8.71
2022-09-07T05:49:47.265Z,8.71
2022-09-07T05:50:47.246Z,8.66
2022-09-07T05:51:47.236Z,8.71
2022-09-07T05:52:47.243Z,8.69
2022-09-07T05:53:47.210Z,8.67
2022-09-07T05:54:47.198Z,8.69
2022-09-07T05:55:47.179Z,8.71
2022-09-07T05:56:47.196Z,8.69
2022-09-07T05:57:47.189Z,8.71
2022-09-07T05:58:47.161Z,8.74
2022-09-07T05:59:47.153Z,8.71
2022-09-07T06:00:47.128Z,8.70
2022-09-07T06:01:47.127Z,8.72
2022-09-07T06:02:47.177Z,8.73
2022-09-07T06:03:47.089Z,8.69
2022-09-07T06:04:47.080Z,8.70
2022-09-07T06:05:47.081Z,8.71
2022-09-07T06:07:10.781Z,8.73
2022-09-07T06:07:48.084Z,8.72
2022-09-07T06:08:47.048Z,8.69
2022-09-07T06:10:48.019Z,8.73
2022-09-07T06:11:46.999Z,8.70
2022-09-07T06:12:49.130Z,8.71
2022-09-07T06:13:46.963Z,8.72
2022-09-07T06:14:46.970Z,8.71
2022-09-07T06:15:46.952Z,8.72
2022-09-07T06:16:47.154Z,8.69
2022-09-07T06:17:46.936Z,8.73
2022-09-07T06:18:46.919Z,8.71
2022-09-07T06:19:46.909Z,8.69
2022-09-07T06:20:46.893Z,8.69
2022-09-07T06:21:46.884Z,8.68
2022-09-07T06:22:46.891Z,8.71
2022-09-07T06:23:46.858Z,8.67
2022-09-07T06:24:46.848Z,8.66
2022-09-07T06:25:46.843Z,8.69
2022-09-07T06:26:46.811Z,8.69
2022-09-07T06:27:46.825Z,8.70
2022-09-07T06:28:49.620Z,8.72
2022-09-07T06:29:46.791Z,8.72
2022-09-07T06:30:46.773Z,8.74
2022-09-07T06:32:47.780Z,8.87
2022-09-07T06:33:46.746Z,8.94
2022-09-07T06:34:46.726Z,9.05
2022-09-07T06:35:46.725Z,9.23
2022-09-07T06:36:46.704Z,9.44
2022-09-07T06:37:46.696Z,9.74
2022-09-07T06:38:46.731Z,10.16
2022-09-07T06:39:46.758Z,10.64
2022-09-07T06:40:46.674Z,11.27
2022-09-07T06:42:02.091Z,11.76
2022-09-07T06:42:47.665Z,12.38
2022-09-07T06:43:46.628Z,12.96
2022-09-07T06:44:46.671Z,13.44
2022-09-07T06:45:46.690Z,13.92
2022-09-07T06:47:47.611Z,14.84
2022-09-07T06:48:46.607Z,15.25
2022-09-07T06:49:46.566Z,15.64
2022-09-07T06:50:46.548Z,16.19
2022-09-07T06:51:46.561Z,16.67
2022-09-07T06:53:48.054Z,17.75
2022-09-07T06:55:01.987Z,18.37
2022-09-07T06:55:47.524Z,19.10
2022-09-07T06:56:46.485Z,19.69
2022-09-07T06:57:46.468Z,20.09
2022-09-07T06:58:46.506Z,20.52
2022-09-07T06:59:46.482Z,21.29
2022-09-07T07:00:46.475Z,21.87
2022-09-07T07:01:46.434Z,22.38
2022-09-07T07:02:46.405Z,22.94
2022-09-07T07:03:46.458Z,23.30
2022-09-07T07:04:46.400Z,23.59
2022-09-07T07:05:46.393Z,23.76
2022-09-07T07:06:46.383Z,23.97
2022-09-07T07:07:46.354Z,24.08
2022-09-07T07:08:46.383Z,24.08
2022-09-07T07:09:46.362Z,24.08
2022-09-07T07:10:46.327Z,24.17
2022-09-07T07:11:46.304Z,24.11
2022-09-07T07:13:51.305Z,23.77
2022-09-07T07:14:51.275Z,23.88
2022-09-07T07:15:51.212Z,24.04
2022-09-07T07:16:51.479Z,23.86
2022-09-07T07:17:58.114Z,23.45
2022-09-07T07:18:52.232Z,22.69
2022-09-07T07:19:51.181Z,21.69
2022-09-07T07:20:51.152Z,20.81
2022-09-07T07:22:52.151Z,19.60
2022-09-07T07:23:51.116Z,19.23
2022-09-07T07:24:51.142Z,18.71
2022-09-07T07:25:51.129Z,18.29
2022-09-07T07:26:51.112Z,17.79
2022-09-07T07:27:51.098Z,17.51
2022-09-07T07:29:06.323Z,17.45
2022-09-07T07:29:52.130Z,17.27
2022-09-07T07:30:51.056Z,16.76
2022-09-07T07:31:51.033Z,16.10
2022-09-07T07:32:51.005Z,15.60
2022-09-07T07:33:51.038Z,15.10
2022-09-07T07:34:50.995Z,14.87
2022-09-07T07:35:51.063Z,14.61
2022-09-07T07:36:50.983Z,14.35
2022-09-07T07:37:51.032Z,14.17
2022-09-07T07:42:50.903Z,13.05
2022-09-07T07:43:50.885Z,13.05
2022-09-07T07:45:54.929Z,13.00
2022-09-07T07:46:51.201Z,12.91
2022-09-07T07:47:50.846Z,12.92
2022-09-07T07:48:50.831Z,13.08
2022-09-07T07:50:30.488Z,13.18
2022-09-07T07:50:51.806Z,13.21
2022-09-07T07:53:41.148Z,13.19
2022-09-07T07:53:51.764Z,13.18
2022-09-07T07:54:50.752Z,13.26
2022-09-07T07:55:50.774Z,13.38
2022-09-07T07:56:50.738Z,13.50
2022-09-07T07:57:50.739Z,13.66
2022-09-07T07:58:50.708Z,13.89
2022-09-07T07:59:50.699Z,14.05
2022-09-07T08:00:55.422Z,14.16
2022-09-07T08:01:51.765Z,14.13
2022-09-07T08:02:50.730Z,13.92
2022-09-07T08:03:50.653Z,13.89
2022-09-07T08:04:50.660Z,14.07
2022-09-07T08:05:50.634Z,14.38
2022-09-07T08:06:50.635Z,15.04
2022-09-07T08:07:50.617Z,15.78
2022-09-07T08:08:50.590Z,16.53
2022-09-07T08:09:50.590Z,17.04
2022-09-07T08:10:50.589Z,17.53
2022-09-07T08:11:50.563Z,17.90
2022-09-07T08:12:50.576Z,18.13
2022-09-07T08:13:50.531Z,18.48
2022-09-07T08:14:50.523Z,19.03
2022-09-07T08:15:50.593Z,19.79
2022-09-07T08:16:50.511Z,20.34
2022-09-07T08:17:50.500Z,20.97
2022-09-07T08:18:50.483Z,21.44
2022-09-07T08:19:50.482Z,21.89
2022-09-07T08:20:50.463Z,22.24
2022-09-07T08:21:50.441Z,22.65
2022-09-07T08:22:50.443Z,22.99
2022-09-07T08:23:50.423Z,23.27
2022-09-07T08:24:50.415Z,23.53
2022-09-07T08:25:50.393Z,23.88
2022-09-07T08:26:50.389Z,24.19
2022-09-07T08:27:50.375Z,24.79
2022-09-07T08:28:50.364Z,25.22
2022-09-07T08:29:50.346Z,25.07
2022-09-07T08:30:50.337Z,24.79
2022-09-07T08:31:50.361Z,24.53
2022-09-07T08:32:50.334Z,24.26
2022-09-07T08:33:50.295Z,24.22
2022-09-07T08:34:50.288Z,24.45
2022-09-07T08:35:50.277Z,25.04
2022-09-07T08:36:50.281Z,25.56
2022-09-07T08:37:50.268Z,25.86
2022-09-07T08:38:50.244Z,25.95
2022-09-07T08:39:50.284Z,26.38
2022-09-07T08:40:50.221Z,26.59
2022-09-07T08:41:50.214Z,27.07
2022-09-07T08:42:50.216Z,27.02
2022-09-07T08:43:50.178Z,27.61
2022-09-07T08:44:50.171Z,28.03
2022-09-07T08:45:50.158Z,27.59
2022-09-07T08:46:50.354Z,26.75
2022-09-07T08:47:50.238Z,27.13
2022-09-07T08:48:50.137Z,27.84
2022-09-07T08:49:50.116Z,28.24
2022-09-07T08:50:50.110Z,29.02
2022-09-07T08:51:50.098Z,28.56
2022-09-07T08:52:50.078Z,28.07
2022-09-07T08:53:50.090Z,28.33
2022-09-07T08:54:50.062Z,28.66
2022-09-07T08:55:50.065Z,29.12
2022-09-07T08:57:51.022Z,29.92
2022-09-07T08:58:50.436Z,30.55
2022-09-07T08:59:50.003Z,30.38
2022-09-07T09:00:50.250Z,30.14
2022-09-07T09:05:51.014Z,33.63
2022-09-07T09:06:50.016Z,34.54
2022-09-07T09:07:49.910Z,35.30
2022-09-07T09:08:49.902Z,35.87
2022-09-07T09:09:49.903Z,36.36
2022-09-07T09:10:49.887Z,36.87
2022-09-07T09:11:49.857Z,37.60
2022-09-07T09:12:49.863Z,38.01
2022-09-07T09:13:49.841Z,39.03
2022-09-07T09:14:49.893Z,39.54
2022-09-07T09:15:49.854Z,39.73
2022-09-07T09:16:49.826Z,40.07
2022-09-07T09:17:49.811Z,40.03
2022-09-07T09:18:49.789Z,39.51
2022-09-07T09:19:49.779Z,39.51
2022-09-07T09:20:49.771Z,39.54
2022-09-07T09:21:49.812Z,39.77
2022-09-07T09:22:49.731Z,40.26
2022-09-07T09:23:49.721Z,40.34
2022-09-07T09:24:49.883Z,40.34
2022-09-07T09:25:49.697Z,40.61
2022-09-07T09:27:49.685Z,41.05
2022-09-07T09:28:49.668Z,41.49
2022-09-07T09:29:49.656Z,41.90
2022-09-07T09:30:49.682Z,42.67
2022-09-07T09:31:49.630Z,42.33
2022-09-07T09:32:49.631Z,40.26
2022-09-07T09:33:49.601Z,38.28
2022-09-07T09:34:49.609Z,38.21
2022-09-07T09:35:49.576Z,38.78
2022-09-07T09:36:49.572Z,39.58
2022-09-07T09:37:49.554Z,40.61
2022-09-07T09:38:49.548Z,41.05
2022-09-07T09:39:51.174Z,41.70
2022-09-07T09:40:50.552Z,42.03
2022-09-07T09:41:49.515Z,42.71
2022-09-07T09:42:49.490Z,42.76
2022-09-07T09:43:49.483Z,42.80
2022-09-07T09:44:49.475Z,41.37
2022-09-07T09:47:29.538Z,39.51
2022-09-07T09:47:50.466Z,40.65
2022-09-07T09:48:49.432Z,41.62
2022-09-07T09:49:49.427Z,41.82
2022-09-07T09:52:51.936Z,41.21
2022-09-07T09:53:49.373Z,42.41
2022-09-07T09:54:49.357Z,43.78
2022-09-07T09:55:49.395Z,44.95
2022-09-07T09:56:49.371Z,45.83
2022-09-07T09:59:56.082Z,45.83
2022-09-07T10:00:00.307Z,46.85
2022-09-07T10:03:59.372Z,48.44
2022-09-07T10:04:50.239Z,48.17
2022-09-07T10:05:49.228Z,47.46
2022-09-07T10:06:49.252Z,47.19
2022-09-07T10:07:49.219Z,47.35
2022-09-07T10:08:49.199Z,47.27
2022-09-07T10:09:49.203Z,46.70
2022-09-07T10:10:49.206Z,45.93
2022-09-07T10:12:50.179Z,43.83
2022-09-07T10:13:49.138Z,44.38
2022-09-07T10:14:49.131Z,47.17
2022-09-07T10:15:49.136Z,50.00
2022-09-07T10:16:49.116Z,52.89
2022-09-07T10:17:49.090Z,55.22
2022-09-07T10:18:49.090Z,57.41
2022-09-07T10:19:49.073Z,58.90
2022-09-07T10:20:49.080Z,60.64
2022-09-07T10:21:49.048Z,60.73
2022-09-07T10:22:51.543Z,60.12
2022-09-07T10:23:49.067Z,59.74
2022-09-07T10:24:49.071Z,60.25
2022-09-07T10:25:49.000Z,60.64
2022-09-07T10:26:49.000Z,61.44
2022-09-07T10:27:48.979Z,62.63
2022-09-07T10:29:49.960Z,65.30
2022-09-07T10:30:49.003Z,65.82
2022-09-07T10:31:48.940Z,66.23
2022-09-07T10:32:48.935Z,68.55
2022-09-07T10:34:49.906Z,69.29
2022-09-07T10:35:48.888Z,65.51
2022-09-07T10:36:48.895Z,60.21
2022-09-07T10:37:48.928Z,57.06
2022-09-07T10:38:48.869Z,54.76
2022-09-07T10:39:48.924Z,53.33
2022-09-07T10:40:48.842Z,52.93
2022-09-07T10:41:48.825Z,51.79
2022-09-07T10:43:49.793Z,51.16
2022-09-07T10:44:48.818Z,51.31
2022-09-07T10:45:48.791Z,52.73
2022-09-07T10:46:56.688Z,54.83
2022-09-07T10:47:49.750Z,57.10
2022-09-07T10:48:48.756Z,59.27
2022-09-07T10:50:49.739Z,64.95
2022-09-07T10:51:48.740Z,67.34
2022-09-07T10:52:48.709Z,69.12
2022-09-07T10:54:30.165Z,70.63
2022-09-07T10:54:49.859Z,73.40
2022-09-07T10:55:48.680Z,75.31
2022-09-07T10:56:48.665Z,77.25
2022-09-07T10:57:49.349Z,78.62
2022-09-07T10:59:04.536Z,79.89
2022-09-07T11:00:49.628Z,83.54
2022-09-07T11:01:48.637Z,84.29
2022-09-07T11:03:49.695Z,85.06
2022-09-07T11:04:48.570Z,86.29
2022-09-07T11:05:48.554Z,88.09
2022-09-07T11:06:48.572Z,91.15
2022-09-07T11:07:48.532Z,93.17
2022-09-07T11:09:49.515Z,93.66
2022-09-07T11:10:48.493Z,94.45
2022-09-07T11:12:04.348Z,95.31
2022-09-07T11:12:49.473Z,98.43
2022-09-07T11:14:11.397Z,102.20
2022-09-07T11:14:49.455Z,105.21
2022-09-07T11:15:48.488Z,109.53
2022-09-07T11:16:51.801Z,115.47
2022-09-07T11:17:52.746Z,118.40
2022-09-07T11:18:48.416Z,118.23
2022-09-07T11:19:48.394Z,117.90
2022-09-07T11:20:48.389Z,117.98
2022-09-07T11:22:03.611Z,116.11
2022-09-07T11:22:49.379Z,115.55
2022-09-07T11:23:48.349Z,116.27
2022-09-07T11:25:29.025Z,116.51
2022-09-07T11:25:49.328Z,119.24
2022-09-07T11:26:48.328Z,123.62
2022-09-07T11:27:48.323Z,126.60
2022-09-07T11:29:28.789Z,129.13
2022-09-07T11:29:49.290Z,134.50
2022-09-07T11:30:48.314Z,138.60
2022-09-07T11:31:48.261Z,140.81
2022-09-07T11:32:48.251Z,143.70
2022-09-07T11:34:49.229Z,146.07
2022-09-07T11:35:48.210Z,147.61
2022-09-07T11:36:48.215Z,146.96
2022-09-07T11:37:48.201Z,147.61
2022-09-07T11:38:48.194Z,152.70
2022-09-07T11:39:48.202Z,156.25
2022-09-07T11:40:48.158Z,155.96
2022-09-07T11:41:48.148Z,151.05
2022-09-07T11:42:48.132Z,154.53
2022-09-07T11:43:48.134Z,156.69
2022-09-07T11:44:48.110Z,158.76
2022-09-07T11:45:48.136Z,159.51
2022-09-07T11:46:48.091Z,159.51
2022-09-07T11:47:48.064Z,158.61
2022-09-07T11:48:48.077Z,158.01
2022-09-07T11:49:52.584Z,157.27
2022-09-07T11:50:49.032Z,157.42
2022-09-07T11:51:53.577Z,156.69
2022-09-07T11:52:53.588Z,154.81
2022-09-07T11:53:48.004Z,153.26
2022-09-07T11:54:48.004Z,153.26
2022-09-07T11:55:47.975Z,150.38
2022-09-07T11:56:47.987Z,151.05
2022-09-07T11:57:51.383Z,153.96
2022-09-07T11:58:48.937Z,153.54
2022-09-07T11:59:47.955Z,154.10
2022-09-07T12:00:47.919Z,153.96
2022-09-07T12:01:47.913Z,155.38
2022-09-07T12:02:59.304Z,155.38
2022-09-07T12:03:48.977Z,156.69
2022-09-07T12:04:49.274Z,158.01
2022-09-07T12:05:47.857Z,157.71
2022-09-07T12:06:47.919Z,158.01
2022-09-07T12:07:47.837Z,159.36
2022-09-07T12:08:47.832Z,156.54
2022-09-07T12:09:47.848Z,150.11
2022-09-07T12:10:47.816Z,153.12
2022-09-07T12:11:47.796Z,154.67
2022-09-07T12:12:47.789Z,155.24
2022-09-07T12:13:47.770Z,157.42
2022-09-07T12:14:47.761Z,156.54
2022-09-07T12:15:47.846Z,156.83
2022-09-07T12:16:47.739Z,156.98
2022-09-07T12:17:47.728Z,160.42
2022-09-07T12:18:47.723Z,162.91
2022-09-07T12:19:47.703Z,162.91
2022-09-07T12:20:47.682Z,165.31
2022-09-07T12:21:47.702Z,166.46
2022-09-07T12:22:47.673Z,166.46
2022-09-07T12:23:47.665Z,170.17
2022-09-07T12:24:47.643Z,171.38
2022-09-07T12:25:47.635Z,169.65
2022-09-07T12:26:47.646Z,169.99
2022-09-07T12:27:47.604Z,170.34
2022-09-07T12:28:47.594Z,169.48
2022-09-07T12:29:47.616Z,173.32
2022-09-07T12:30:47.619Z,173.86
2022-09-07T12:31:57.870Z,175.31
2022-09-07T12:32:57.349Z,174.40
2022-09-07T12:33:48.535Z,174.95
2022-09-07T12:34:47.527Z,172.43
2022-09-07T12:35:47.516Z,170.68
2022-09-07T12:36:47.509Z,171.38
2022-09-07T12:37:47.506Z,173.86
2022-09-07T12:38:47.495Z,175.49
2022-09-07T12:39:47.556Z,178.29
2022-09-07T12:40:47.450Z,180.39
2022-09-07T12:41:47.886Z,179.24
2022-09-07T12:42:47.431Z,176.60
2022-09-07T12:43:47.441Z,176.42
2022-09-07T12:44:47.547Z,176.97
2022-09-07T12:45:47.437Z,176.79
2022-09-07T12:46:47.417Z,175.86
2022-09-07T12:47:47.662Z,177.91
2022-09-07T12:48:47.379Z,179.81
2022-09-07T12:49:47.372Z,177.91
2022-09-07T12:50:47.347Z,178.86
2022-09-07T12:52:13.855Z,177.53
2022-09-07T12:52:48.321Z,176.79
2022-09-07T12:53:47.341Z,178.48
2022-09-07T12:54:55.795Z,181.36
2022-09-07T12:57:28.959Z,182.55
2022-09-07T12:57:48.263Z,176.60
2022-09-07T12:58:47.251Z,182.15
2022-09-07T12:59:47.355Z,185.35
2022-09-07T13:00:47.247Z,186.08
2022-09-07T13:01:47.269Z,187.55
2022-09-07T13:02:47.215Z,185.97
2022-09-07T13:03:51.596Z,187.45
2022-09-07T13:04:48.262Z,186.29
2022-09-07T13:05:47.177Z,185.35
2022-09-07T13:07:02.884Z,185.57
2022-09-07T13:07:48.148Z,185.57
2022-09-07T13:08:47.136Z,183.74
2022-09-07T13:09:47.123Z,184.35
2022-09-07T13:10:47.126Z,187.02
2022-09-07T13:11:47.097Z,187.13
2022-09-07T13:12:56.742Z,186.81
2022-09-07T13:14:04.968Z,186.81
2022-09-07T13:14:48.057Z,189.05
2022-09-07T13:15:47.699Z,190.47
2022-09-07T13:17:48.123Z,189.60
2022-09-07T13:18:47.016Z,188.95
2022-09-07T13:19:47.016Z,186.18
2022-09-07T13:20:47.005Z,186.71
2022-09-07T13:21:46.979Z,191.57
2022-09-07T13:22:46.961Z,193.71
2022-09-07T13:23:46.958Z,194.05
2022-09-07T13:24:47.648Z,193.37
2022-09-07T13:25:46.968Z,190.91
2022-09-07T13:26:50.646Z,188.95
2022-09-07T13:27:46.915Z,189.27
2022-09-07T13:28:47.552Z,189.71
2022-09-07T13:29:46.892Z,183.14
2022-09-07T13:30:46.904Z,155.82
2022-09-07T13:31:46.903Z,160.42
2022-09-07T13:33:47.840Z,175.13
2022-09-07T13:34:46.827Z,181.36
2022-09-07T13:35:46.822Z,185.66
2022-09-07T13:36:46.803Z,190.25
2022-09-07T13:37:46.814Z,194.28
2022-09-07T13:38:46.794Z,195.89